WARR/SUB METAR and TAF weather

Enter ICAO airport designator
Station Type Date Time Source
WARR METAR 2019/08/20 00:00 UTC NOAA

WARR 200000Z 18005KT 130V240 6000 HZ FEW020 26/19 Q1013 NOSIG


Station Type Date Time Source
WARR Decoded METAR 2019/08/20 00:00 UTC NOAA

Station name not available
Aug 19, 2019 - 08:00 PM EDT / 2019.08.20 0000 UTC
Wind: from the S (180 degrees) at 6 MPH (5 KT) (direction variable):0
Visibility: 3 mile(s):0
Sky conditions: mostly clear
Weather: haze
Temperature: 78 F (26 C)
Dew Point: 66 F (19 C)
Relative Humidity: 65%
Pressure (altimeter): 29.91 in. Hg (1013 hPa)
ob: WARR 200000Z 18005KT 130V240 6000 HZ FEW020 26/19 Q1013 NOSIG
cycle: 0

Station Type Date Time Source
WARR TAF 2019/08/26 06:12 UTC NOAA

TAF WARR 260500Z 2606/2706 11012KT 9999 FEW020
TEMPO 2620/2700 27005KT 4000 HZ

Example: see airport list